sensor_id;sensor_type;location;lat;lon;timestamp;temperature;humidity
15574;DHT22;7888;46.748;8.102;2023-05-10T00:01:25;17.70;57.80
15574;DHT22;7888;46.748;8.102;2023-05-10T00:03:51;17.70;57.90
15574;DHT22;7888;46.748;8.102;2023-05-10T00:06:17;17.60;57.80
15574;DHT22;7888;46.748;8.102;2023-05-10T00:08:44;17.60;57.80
15574;DHT22;7888;46.748;8.102;2023-05-10T00:11:10;17.60;57.90
15574;DHT22;7888;46.748;8.102;2023-05-10T00:13:36;17.50;57.90
15574;DHT22;7888;46.748;8.102;2023-05-10T00:16:02;17.50;58.00
15574;DHT22;7888;46.748;8.102;2023-05-10T00:18:28;17.50;58.00
15574;DHT22;7888;46.748;8.102;2023-05-10T00:20:54;17.50;58.10
15574;DHT22;7888;46.748;8.102;2023-05-10T00:23:19;17.50;58.10
15574;DHT22;7888;46.748;8.102;2023-05-10T00:25:45;17.40;58.20
15574;DHT22;7888;46.748;8.102;2023-05-10T00:28:11;17.40;58.10
15574;DHT22;7888;46.748;8.102;2023-05-10T00:30:36;17.40;58.20
15574;DHT22;7888;46.748;8.102;2023-05-10T00:33:02;17.40;58.20
15574;DHT22;7888;46.748;8.102;2023-05-10T00:35:28;17.40;58.30
15574;DHT22;7888;46.748;8.102;2023-05-10T00:37:54;17.30;58.20
15574;DHT22;7888;46.748;8.102;2023-05-10T00:40:20;17.30;58.20
15574;DHT22;7888;46.748;8.102;2023-05-10T00:42:46;17.30;58.10
15574;DHT22;7888;46.748;8.102;2023-05-10T00:45:11;17.30;58.10
15574;DHT22;7888;46.748;8.102;2023-05-10T00:47:38;17.30;58.10
15574;DHT22;7888;46.748;8.102;2023-05-10T00:50:05;17.20;57.90
15574;DHT22;7888;46.748;8.102;2023-05-10T00:52:31;17.20;57.60
15574;DHT22;7888;46.748;8.102;2023-05-10T00:54:57;17.20;57.70
15574;DHT22;7888;46.748;8.102;2023-05-10T00:57:24;17.10;57.70
15574;DHT22;7888;46.748;8.102;2023-05-10T00:59:50;17.10;57.80
15574;DHT22;7888;46.748;8.102;2023-05-10T01:02:16;17.10;57.80
15574;DHT22;7888;46.748;8.102;2023-05-10T01:04:43;17.10;57.90
15574;DHT22;7888;46.748;8.102;2023-05-10T01:07:09;17.10;57.90
15574;DHT22;7888;46.748;8.102;2023-05-10T01:09:34;17.10;57.90
15574;DHT22;7888;46.748;8.102;2023-05-10T01:12:01;17.10;57.90
15574;DHT22;7888;46.748;8.102;2023-05-10T01:14:28;17.10;58.00
15574;DHT22;7888;46.748;8.102;2023-05-10T01:16:55;17.10;58.20
15574;DHT22;7888;46.748;8.102;2023-05-10T01:19:26;17.10;58.20
15574;DHT22;7888;46.748;8.102;2023-05-10T01:27:55;17.10;58.00
15574;DHT22;7888;46.748;8.102;2023-05-10T01:34:06;17.10;58.20
15574;DHT22;7888;46.748;8.102;2023-05-10T01:36:59;17.00;58.90
15574;DHT22;7888;46.748;8.102;2023-05-10T01:39:47;17.00;58.30
15574;DHT22;7888;46.748;8.102;2023-05-10T01:42:29;17.00;58.40
15574;DHT22;7888;46.748;8.102;2023-05-10T01:48:01;16.90;58.70
15574;DHT22;7888;46.748;8.102;2023-05-10T01:50:31;16.90;58.70
15574;DHT22;7888;46.748;8.102;2023-05-10T01:53:00;16.90;58.60
15574;DHT22;7888;46.748;8.102;2023-05-10T01:55:34;16.90;58.70
15574;DHT22;7888;46.748;8.102;2023-05-10T01:58:11;16.90;58.80
15574;DHT22;7888;46.748;8.102;2023-05-10T02:00:43;16.90;58.70
15574;DHT22;7888;46.748;8.102;2023-05-10T02:03:12;16.90;58.40
15574;DHT22;7888;46.748;8.102;2023-05-10T02:05:41;16.90;58.40
15574;DHT22;7888;46.748;8.102;2023-05-10T02:08:11;16.90;58.40
15574;DHT22;7888;46.748;8.102;2023-05-10T02:10:39;16.90;58.60
15574;DHT22;7888;46.748;8.102;2023-05-10T02:13:07;16.90;58.60
15574;DHT22;7888;46.748;8.102;2023-05-10T02:15:34;16.90;58.70
15574;DHT22;7888;46.748;8.102;2023-05-10T02:18:02;16.90;58.80
15574;DHT22;7888;46.748;8.102;2023-05-10T02:20:31;16.80;58.80
15574;DHT22;7888;46.748;8.102;2023-05-10T02:22:58;16.80;58.90
15574;DHT22;7888;46.748;8.102;2023-05-10T02:25:27;16.80;58.90
15574;DHT22;7888;46.748;8.102;2023-05-10T02:27:56;16.80;58.90
15574;DHT22;7888;46.748;8.102;2023-05-10T02:30:23;16.80;59.00
15574;DHT22;7888;46.748;8.102;2023-05-10T02:32:50;16.80;58.90
15574;DHT22;7888;46.748;8.102;2023-05-10T02:35:17;16.80;59.00
15574;DHT22;7888;46.748;8.102;2023-05-10T02:37:44;16.80;59.10
15574;DHT22;7888;46.748;8.102;2023-05-10T02:40:12;16.80;59.10
15574;DHT22;7888;46.748;8.102;2023-05-10T02:42:41;16.80;59.10
15574;DHT22;7888;46.748;8.102;2023-05-10T02:45:21;16.80;59.10
15574;DHT22;7888;46.748;8.102;2023-05-10T02:47:50;16.80;59.00
15574;DHT22;7888;46.748;8.102;2023-05-10T02:50:16;16.80;58.90
15574;DHT22;7888;46.748;8.102;2023-05-10T02:52:51;16.80;59.00
15574;DHT22;7888;46.748;8.102;2023-05-10T02:55:21;16.80;59.20
15574;DHT22;7888;46.748;8.102;2023-05-10T02:58:00;16.80;59.00
15574;DHT22;7888;46.748;8.102;2023-05-10T03:00:28;16.80;59.20
15574;DHT22;7888;46.748;8.102;2023-05-10T03:02:54;16.80;59.10
15574;DHT22;7888;46.748;8.102;2023-05-10T03:05:20;16.80;59.10
15574;DHT22;7888;46.748;8.102;2023-05-10T03:07:47;16.70;59.10
15574;DHT22;7888;46.748;8.102;2023-05-10T03:10:13;16.80;58.90
15574;DHT22;7888;46.748;8.102;2023-05-10T03:16:15;16.70;58.80
15574;DHT22;7888;46.748;8.102;2023-05-10T03:18:50;16.70;58.60
15574;DHT22;7888;46.748;8.102;2023-05-10T03:21:22;16.80;58.90
15574;DHT22;7888;46.748;8.102;2023-05-10T03:23:59;16.70;59.40
15574;DHT22;7888;46.748;8.102;2023-05-10T03:26:32;16.70;59.20
15574;DHT22;7888;46.748;8.102;2023-05-10T03:28:59;16.60;59.00
15574;DHT22;7888;46.748;8.102;2023-05-10T03:31:26;16.60;59.00
15574;DHT22;7888;46.748;8.102;2023-05-10T03:33:52;16.60;59.10
15574;DHT22;7888;46.748;8.102;2023-05-10T03:36:19;16.60;59.30
15574;DHT22;7888;46.748;8.102;2023-05-10T03:38:45;16.60;59.40
15574;DHT22;7888;46.748;8.102;2023-05-10T03:41:11;16.60;59.40
15574;DHT22;7888;46.748;8.102;2023-05-10T03:43:36;16.60;59.30
15574;DHT22;7888;46.748;8.102;2023-05-10T03:46:05;16.50;59.20
15574;DHT22;7888;46.748;8.102;2023-05-10T03:48:34;16.50;59.30
15574;DHT22;7888;46.748;8.102;2023-05-10T03:51:00;16.50;59.10
15574;DHT22;7888;46.748;8.102;2023-05-10T03:53:26;16.50;59.10
15574;DHT22;7888;46.748;8.102;2023-05-10T03:55:52;16.50;59.00
15574;DHT22;7888;46.748;8.102;2023-05-10T03:58:18;16.50;59.00
15574;DHT22;7888;46.748;8.102;2023-05-10T04:00:44;16.40;58.90
15574;DHT22;7888;46.748;8.102;2023-05-10T04:03:11;16.40;59.00
15574;DHT22;7888;46.748;8.102;2023-05-10T04:05:37;16.40;59.10
15574;DHT22;7888;46.748;8.102;2023-05-10T04:08:04;16.30;59.20
15574;DHT22;7888;46.748;8.102;2023-05-10T04:10:30;16.30;59.20
15574;DHT22;7888;46.748;8.102;2023-05-10T04:12:56;16.30;59.10
15574;DHT22;7888;46.748;8.102;2023-05-10T04:15:22;16.20;59.20
15574;DHT22;7888;46.748;8.102;2023-05-10T04:17:48;16.20;59.30
15574;DHT22;7888;46.748;8.102;2023-05-10T04:20:14;16.20;59.50
15574;DHT22;7888;46.748;8.102;2023-05-10T04:22:40;16.20;59.60
15574;DHT22;7888;46.748;8.102;2023-05-10T04:25:06;16.30;59.80
15574;DHT22;7888;46.748;8.102;2023-05-10T04:27:33;16.30;59.80
15574;DHT22;7888;46.748;8.102;2023-05-10T04:29:58;16.20;59.80
15574;DHT22;7888;46.748;8.102;2023-05-10T04:32:24;16.20;59.80
15574;DHT22;7888;46.748;8.102;2023-05-10T04:34:50;16.30;60.10
15574;DHT22;7888;46.748;8.102;2023-05-10T04:37:17;16.30;59.90
15574;DHT22;7888;46.748;8.102;2023-05-10T04:39:43;16.30;59.80
15574;DHT22;7888;46.748;8.102;2023-05-10T04:42:09;16.30;59.80
15574;DHT22;7888;46.748;8.102;2023-05-10T04:44:35;16.30;59.70
15574;DHT22;7888;46.748;8.102;2023-05-10T04:47:01;16.30;59.60
15574;DHT22;7888;46.748;8.102;2023-05-10T04:49:28;16.30;59.60
15574;DHT22;7888;46.748;8.102;2023-05-10T04:51:55;16.30;59.60
15574;DHT22;7888;46.748;8.102;2023-05-10T04:54:21;16.20;59.50
15574;DHT22;7888;46.748;8.102;2023-05-10T04:56:47;16.20;59.50
15574;DHT22;7888;46.748;8.102;2023-05-10T04:59:12;16.20;59.30
15574;DHT22;7888;46.748;8.102;2023-05-10T05:01:39;16.20;59.20
15574;DHT22;7888;46.748;8.102;2023-05-10T05:04:05;16.20;59.00
15574;DHT22;7888;46.748;8.102;2023-05-10T05:06:30;16.10;59.10
15574;DHT22;7888;46.748;8.102;2023-05-10T05:08:56;16.10;59.10
15574;DHT22;7888;46.748;8.102;2023-05-10T05:11:22;16.10;59.20
15574;DHT22;7888;46.748;8.102;2023-05-10T05:13:48;16.10;59.30
15574;DHT22;7888;46.748;8.102;2023-05-10T05:16:14;16.00;59.30
15574;DHT22;7888;46.748;8.102;2023-05-10T05:18:39;16.00;59.30
15574;DHT22;7888;46.748;8.102;2023-05-10T05:21:18;16.00;59.20
15574;DHT22;7888;46.748;8.102;2023-05-10T05:23:45;16.00;59.40
15574;DHT22;7888;46.748;8.102;2023-05-10T05:26:11;16.00;59.20
15574;DHT22;7888;46.748;8.102;2023-05-10T05:28:37;16.00;59.40
15574;DHT22;7888;46.748;8.102;2023-05-10T05:31:07;16.00;59.60
15574;DHT22;7888;46.748;8.102;2023-05-10T05:33:33;16.00;59.90
15574;DHT22;7888;46.748;8.102;2023-05-10T05:36:03;16.00;59.90
15574;DHT22;7888;46.748;8.102;2023-05-10T05:38:30;16.00;60.20
15574;DHT22;7888;46.748;8.102;2023-05-10T05:40:56;16.00;60.00
15574;DHT22;7888;46.748;8.102;2023-05-10T05:43:22;16.00;60.00
15574;DHT22;7888;46.748;8.102;2023-05-10T05:45:48;15.90;60.10
15574;DHT22;7888;46.748;8.102;2023-05-10T05:48:14;15.90;60.10
15574;DHT22;7888;46.748;8.102;2023-05-10T05:50:40;15.90;60.20
15574;DHT22;7888;46.748;8.102;2023-05-10T05:53:06;15.90;60.40
15574;DHT22;7888;46.748;8.102;2023-05-10T05:55:31;15.90;60.70
15574;DHT22;7888;46.748;8.102;2023-05-10T05:57:58;15.90;60.80
15574;DHT22;7888;46.748;8.102;2023-05-10T06:00:24;15.90;60.80
15574;DHT22;7888;46.748;8.102;2023-05-10T06:02:49;15.90;60.90
15574;DHT22;7888;46.748;8.102;2023-05-10T06:05:15;15.90;61.10
15574;DHT22;7888;46.748;8.102;2023-05-10T06:07:41;16.00;60.90
15574;DHT22;7888;46.748;8.102;2023-05-10T06:10:08;16.00;60.90
15574;DHT22;7888;46.748;8.102;2023-05-10T06:12:34;16.00;60.90
15574;DHT22;7888;46.748;8.102;2023-05-10T06:15:00;16.10;61.00
15574;DHT22;7888;46.748;8.102;2023-05-10T06:17:26;16.10;61.00
15574;DHT22;7888;46.748;8.102;2023-05-10T06:19:52;16.10;60.90
15574;DHT22;7888;46.748;8.102;2023-05-10T06:22:18;16.20;60.90
15574;DHT22;7888;46.748;8.102;2023-05-10T06:24:44;16.20;60.80
15574;DHT22;7888;46.748;8.102;2023-05-10T06:27:10;16.20;60.70
15574;DHT22;7888;46.748;8.102;2023-05-10T06:29:35;16.20;60.70
15574;DHT22;7888;46.748;8.102;2023-05-10T06:32:01;16.30;60.70
15574;DHT22;7888;46.748;8.102;2023-05-10T06:34:27;16.30;60.50
15574;DHT22;7888;46.748;8.102;2023-05-10T06:36:53;16.30;60.50
15574;DHT22;7888;46.748;8.102;2023-05-10T06:39:19;16.30;60.20
15574;DHT22;7888;46.748;8.102;2023-05-10T06:41:45;16.40;60.20
15574;DHT22;7888;46.748;8.102;2023-05-10T06:44:10;16.40;60.30
15574;DHT22;7888;46.748;8.102;2023-05-10T06:46:36;16.40;60.30
15574;DHT22;7888;46.748;8.102;2023-05-10T06:49:02;16.40;60.20
15574;DHT22;7888;46.748;8.102;2023-05-10T06:51:28;16.40;60.30
15574;DHT22;7888;46.748;8.102;2023-05-10T06:53:54;16.40;60.30
15574;DHT22;7888;46.748;8.102;2023-05-10T06:56:20;16.40;60.50
15574;DHT22;7888;46.748;8.102;2023-05-10T06:58:47;16.40;60.50
15574;DHT22;7888;46.748;8.102;2023-05-10T07:01:13;16.40;60.60
15574;DHT22;7888;46.748;8.102;2023-05-10T07:03:39;16.40;60.50
15574;DHT22;7888;46.748;8.102;2023-05-10T07:06:05;16.40;60.50
15574;DHT22;7888;46.748;8.102;2023-05-10T07:08:33;16.40;60.30
15574;DHT22;7888;46.748;8.102;2023-05-10T07:11:04;16.40;60.50
15574;DHT22;7888;46.748;8.102;2023-05-10T07:13:31;16.40;60.60
15574;DHT22;7888;46.748;8.102;2023-05-10T07:15:58;16.40;60.50
15574;DHT22;7888;46.748;8.102;2023-05-10T07:18:25;16.50;60.70
15574;DHT22;7888;46.748;8.102;2023-05-10T07:20:51;16.50;60.70
15574;DHT22;7888;46.748;8.102;2023-05-10T07:23:16;16.50;60.80
15574;DHT22;7888;46.748;8.102;2023-05-10T07:25:49;16.50;60.80
15574;DHT22;7888;46.748;8.102;2023-05-10T07:28:17;16.50;61.00
15574;DHT22;7888;46.748;8.102;2023-05-10T07:30:44;16.50;60.80
15574;DHT22;7888;46.748;8.102;2023-05-10T07:33:11;16.60;60.70
15574;DHT22;7888;46.748;8.102;2023-05-10T07:35:38;16.60;60.70
15574;DHT22;7888;46.748;8.102;2023-05-10T07:38:04;16.60;60.70
15574;DHT22;7888;46.748;8.102;2023-05-10T07:40:30;16.60;60.60
15574;DHT22;7888;46.748;8.102;2023-05-10T07:42:56;16.70;60.60
15574;DHT22;7888;46.748;8.102;2023-05-10T07:45:22;16.70;60.20
15574;DHT22;7888;46.748;8.102;2023-05-10T07:47:48;16.70;60.10
15574;DHT22;7888;46.748;8.102;2023-05-10T07:50:15;16.70;60.20
15574;DHT22;7888;46.748;8.102;2023-05-10T07:52:41;16.70;59.90
15574;DHT22;7888;46.748;8.102;2023-05-10T07:55:07;16.70;59.90
15574;DHT22;7888;46.748;8.102;2023-05-10T07:57:34;16.70;59.70
15574;DHT22;7888;46.748;8.102;2023-05-10T08:00:00;16.70;59.70
15574;DHT22;7888;46.748;8.102;2023-05-10T08:02:26;16.80;59.70
15574;DHT22;7888;46.748;8.102;2023-05-10T08:04:52;16.70;59.60
15574;DHT22;7888;46.748;8.102;2023-05-10T08:07:18;16.80;59.60
15574;DHT22;7888;46.748;8.102;2023-05-10T08:09:43;16.70;59.30
15574;DHT22;7888;46.748;8.102;2023-05-10T08:12:09;16.80;59.20
15574;DHT22;7888;46.748;8.102;2023-05-10T08:14:35;16.80;59.10
15574;DHT22;7888;46.748;8.102;2023-05-10T08:17:04;16.70;59.00
15574;DHT22;7888;46.748;8.102;2023-05-10T08:19:30;16.70;59.00
15574;DHT22;7888;46.748;8.102;2023-05-10T08:21:55;16.70;59.10
15574;DHT22;7888;46.748;8.102;2023-05-10T08:24:22;16.70;58.90
15574;DHT22;7888;46.748;8.102;2023-05-10T08:26:48;16.70;58.90
15574;DHT22;7888;46.748;8.102;2023-05-10T08:29:14;16.70;58.80
15574;DHT22;7888;46.748;8.102;2023-05-10T08:31:41;16.70;58.70
15574;DHT22;7888;46.748;8.102;2023-05-10T08:34:07;16.70;58.60
15574;DHT22;7888;46.748;8.102;2023-05-10T08:36:33;16.70;58.60
15574;DHT22;7888;46.748;8.102;2023-05-10T08:38:59;16.80;58.40
15574;DHT22;7888;46.748;8.102;2023-05-10T08:41:25;16.80;58.50
15574;DHT22;7888;46.748;8.102;2023-05-10T08:43:54;16.80;58.50
15574;DHT22;7888;46.748;8.102;2023-05-10T08:46:21;16.80;58.30
15574;DHT22;7888;46.748;8.102;2023-05-10T08:48:49;16.80;58.30
15574;DHT22;7888;46.748;8.102;2023-05-10T08:51:22;16.80;58.30
15574;DHT22;7888;46.748;8.102;2023-05-10T08:53:52;16.80;58.00
15574;DHT22;7888;46.748;8.102;2023-05-10T08:56:18;16.80;58.20
15574;DHT22;7888;46.748;8.102;2023-05-10T08:58:45;16.80;58.20
15574;DHT22;7888;46.748;8.102;2023-05-10T09:01:12;16.80;58.00
15574;DHT22;7888;46.748;8.102;2023-05-10T09:03:40;16.80;57.90
15574;DHT22;7888;46.748;8.102;2023-05-10T09:06:06;16.80;58.00
15574;DHT22;7888;46.748;8.102;2023-05-10T09:08:34;16.70;58.00
15574;DHT22;7888;46.748;8.102;2023-05-10T09:11:02;16.80;58.10
15574;DHT22;7888;46.748;8.102;2023-05-10T09:13:29;16.80;58.20
15574;DHT22;7888;46.748;8.102;2023-05-10T09:15:55;16.80;58.30
15574;DHT22;7888;46.748;8.102;2023-05-10T09:18:21;16.80;58.10
15574;DHT22;7888;46.748;8.102;2023-05-10T09:20:46;16.80;58.00
15574;DHT22;7888;46.748;8.102;2023-05-10T09:23:13;16.80;58.00
15574;DHT22;7888;46.748;8.102;2023-05-10T09:25:41;16.90;58.20
15574;DHT22;7888;46.748;8.102;2023-05-10T09:28:08;16.90;58.30
15574;DHT22;7888;46.748;8.102;2023-05-10T09:30:35;16.90;58.30
15574;DHT22;7888;46.748;8.102;2023-05-10T09:33:01;16.90;58.00
15574;DHT22;7888;46.748;8.102;2023-05-10T09:35:30;16.90;57.70
15574;DHT22;7888;46.748;8.102;2023-05-10T09:38:00;17.00;57.60
15574;DHT22;7888;46.748;8.102;2023-05-10T09:40:29;17.00;57.50
15574;DHT22;7888;46.748;8.102;2023-05-10T09:42:57;17.00;57.60
15574;DHT22;7888;46.748;8.102;2023-05-10T09:45:28;17.00;57.80
15574;DHT22;7888;46.748;8.102;2023-05-10T09:48:00;17.00;57.80
15574;DHT22;7888;46.748;8.102;2023-05-10T09:50:28;17.10;58.10
15574;DHT22;7888;46.748;8.102;2023-05-10T09:52:56;17.10;58.10
15574;DHT22;7888;46.748;8.102;2023-05-10T09:58:04;17.20;57.30
15574;DHT22;7888;46.748;8.102;2023-05-10T10:00:36;17.30;57.60
15574;DHT22;7888;46.748;8.102;2023-05-10T10:03:03;17.30;57.60
15574;DHT22;7888;46.748;8.102;2023-05-10T10:05:33;17.40;57.40
15574;DHT22;7888;46.748;8.102;2023-05-10T10:08:03;17.40;57.20
15574;DHT22;7888;46.748;8.102;2023-05-10T10:10:31;17.50;57.20
15574;DHT22;7888;46.748;8.102;2023-05-10T10:12:58;17.50;57.10
15574;DHT22;7888;46.748;8.102;2023-05-10T10:15:25;17.50;57.20
15574;DHT22;7888;46.748;8.102;2023-05-10T10:17:51;17.60;57.20
15574;DHT22;7888;46.748;8.102;2023-05-10T10:20:20;17.70;57.60
15574;DHT22;7888;46.748;8.102;2023-05-10T10:22:48;17.70;57.10
15574;DHT22;7888;46.748;8.102;2023-05-10T10:25:16;17.80;56.90
15574;DHT22;7888;46.748;8.102;2023-05-10T10:30:42;18.10;56.50
15574;DHT22;7888;46.748;8.102;2023-05-10T10:36:06;18.40;55.60
15574;DHT22;7888;46.748;8.102;2023-05-10T10:41:36;18.60;54.10
15574;DHT22;7888;46.748;8.102;2023-05-10T10:44:25;18.60;54.60
15574;DHT22;7888;46.748;8.102;2023-05-10T10:52:35;18.70;54.20
15574;DHT22;7888;46.748;8.102;2023-05-10T10:58:02;18.70;54.30
15574;DHT22;7888;46.748;8.102;2023-05-10T11:00:36;18.70;54.50
15574;DHT22;7888;46.748;8.102;2023-05-10T11:03:04;18.70;54.70
15574;DHT22;7888;46.748;8.102;2023-05-10T11:05:48;18.80;54.90
15574;DHT22;7888;46.748;8.102;2023-05-10T11:08:31;18.70;54.30
15574;DHT22;7888;46.748;8.102;2023-05-10T11:13:42;18.70;54.70
15574;DHT22;7888;46.748;8.102;2023-05-10T11:16:23;18.70;54.60
15574;DHT22;7888;46.748;8.102;2023-05-10T11:19:00;18.80;55.10
15574;DHT22;7888;46.748;8.102;2023-05-10T11:21:29;18.80;55.70
15574;DHT22;7888;46.748;8.102;2023-05-10T11:23:57;18.90;56.20
15574;DHT22;7888;46.748;8.102;2023-05-10T11:26:33;19.10;56.20
15574;DHT22;7888;46.748;8.102;2023-05-10T11:29:00;19.20;56.50
15574;DHT22;7888;46.748;8.102;2023-05-10T11:31:27;19.40;56.30
15574;DHT22;7888;46.748;8.102;2023-05-10T11:33:58;19.60;55.60
15574;DHT22;7888;46.748;8.102;2023-05-10T11:36:28;19.70;55.20
15574;DHT22;7888;46.748;8.102;2023-05-10T11:39:01;19.80;54.70
15574;DHT22;7888;46.748;8.102;2023-05-10T11:41:29;19.80;54.20
15574;DHT22;7888;46.748;8.102;2023-05-10T11:43:57;19.90;54.00
15574;DHT22;7888;46.748;8.102;2023-05-10T11:46:25;19.90;54.20
15574;DHT22;7888;46.748;8.102;2023-05-10T11:48:55;19.90;53.40
15574;DHT22;7888;46.748;8.102;2023-05-10T11:51:27;19.90;53.00
15574;DHT22;7888;46.748;8.102;2023-05-10T11:53:55;19.90;53.00
15574;DHT22;7888;46.748;8.102;2023-05-10T11:56:22;19.90;53.00
15574;DHT22;7888;46.748;8.102;2023-05-10T11:58:58;19.90;53.10
15574;DHT22;7888;46.748;8.102;2023-05-10T12:01:26;20.00;52.80
15574;DHT22;7888;46.748;8.102;2023-05-10T12:03:54;20.10;53.10
15574;DHT22;7888;46.748;8.102;2023-05-10T12:06:27;20.10;52.90
15574;DHT22;7888;46.748;8.102;2023-05-10T12:08:54;20.20;52.70
15574;DHT22;7888;46.748;8.102;2023-05-10T12:11:25;20.20;52.40
15574;DHT22;7888;46.748;8.102;2023-05-10T12:13:53;20.20;51.60
15574;DHT22;7888;46.748;8.102;2023-05-10T12:16:22;20.20;52.10
15574;DHT22;7888;46.748;8.102;2023-05-10T12:18:50;20.20;52.00
15574;DHT22;7888;46.748;8.102;2023-05-10T12:21:18;20.10;51.50
15574;DHT22;7888;46.748;8.102;2023-05-10T12:23:46;20.10;51.80
15574;DHT22;7888;46.748;8.102;2023-05-10T12:26:15;20.10;51.50
15574;DHT22;7888;46.748;8.102;2023-05-10T12:28:41;20.00;51.40
15574;DHT22;7888;46.748;8.102;2023-05-10T12:31:07;19.90;51.30
15574;DHT22;7888;46.748;8.102;2023-05-10T12:33:41;19.90;50.80
15574;DHT22;7888;46.748;8.102;2023-05-10T12:36:09;19.90;50.40
15574;DHT22;7888;46.748;8.102;2023-05-10T12:38:41;19.80;50.90
15574;DHT22;7888;46.748;8.102;2023-05-10T12:41:11;19.80;50.90
15574;DHT22;7888;46.748;8.102;2023-05-10T12:43:38;19.80;51.10
15574;DHT22;7888;46.748;8.102;2023-05-10T12:46:10;19.80;51.30
15574;DHT22;7888;46.748;8.102;2023-05-10T12:48:38;19.80;50.90
15574;DHT22;7888;46.748;8.102;2023-05-10T12:51:05;19.80;51.10
15574;DHT22;7888;46.748;8.102;2023-05-10T12:53:35;19.90;51.00
15574;DHT22;7888;46.748;8.102;2023-05-10T12:56:01;19.90;50.50
15574;DHT22;7888;46.748;8.102;2023-05-10T12:58:27;19.90;50.10
15574;DHT22;7888;46.748;8.102;2023-05-10T13:00:53;19.90;50.00
15574;DHT22;7888;46.748;8.102;2023-05-10T13:03:19;19.90;50.00
15574;DHT22;7888;46.748;8.102;2023-05-10T13:05:45;19.80;50.00
15574;DHT22;7888;46.748;8.102;2023-05-10T13:08:10;19.70;50.10
15574;DHT22;7888;46.748;8.102;2023-05-10T13:10:36;19.70;50.10
15574;DHT22;7888;46.748;8.102;2023-05-10T13:13:02;19.70;50.00
15574;DHT22;7888;46.748;8.102;2023-05-10T13:15:28;19.70;50.40
15574;DHT22;7888;46.748;8.102;2023-05-10T13:17:54;19.60;50.40
15574;DHT22;7888;46.748;8.102;2023-05-10T13:20:20;19.60;50.40
15574;DHT22;7888;46.748;8.102;2023-05-10T13:22:46;19.60;50.40
15574;DHT22;7888;46.748;8.102;2023-05-10T13:25:12;19.60;50.30
15574;DHT22;7888;46.748;8.102;2023-05-10T13:27:41;19.60;50.40
15574;DHT22;7888;46.748;8.102;2023-05-10T13:30:08;19.60;50.40
15574;DHT22;7888;46.748;8.102;2023-05-10T13:32:34;19.50;50.20
15574;DHT22;7888;46.748;8.102;2023-05-10T13:35:01;19.50;50.10
15574;DHT22;7888;46.748;8.102;2023-05-10T13:37:29;19.50;50.20
15574;DHT22;7888;46.748;8.102;2023-05-10T13:39:55;19.40;50.30
15574;DHT22;7888;46.748;8.102;2023-05-10T13:42:22;19.40;50.40
15574;DHT22;7888;46.748;8.102;2023-05-10T13:44:49;19.30;50.40
15574;DHT22;7888;46.748;8.102;2023-05-10T13:47:15;19.30;50.20
15574;DHT22;7888;46.748;8.102;2023-05-10T13:49:42;19.30;50.40
15574;DHT22;7888;46.748;8.102;2023-05-10T13:52:07;19.30;50.60
15574;DHT22;7888;46.748;8.102;2023-05-10T13:54:38;19.30;50.90
15574;DHT22;7888;46.748;8.102;2023-05-10T13:57:04;19.30;51.00
15574;DHT22;7888;46.748;8.102;2023-05-10T13:59:31;19.30;50.90
15574;DHT22;7888;46.748;8.102;2023-05-10T14:01:57;19.40;51.00
15574;DHT22;7888;46.748;8.102;2023-05-10T14:04:24;19.40;51.10
15574;DHT22;7888;46.748;8.102;2023-05-10T14:06:50;19.50;51.00
15574;DHT22;7888;46.748;8.102;2023-05-10T14:09:16;19.60;51.00
15574;DHT22;7888;46.748;8.102;2023-05-10T14:11:42;19.70;51.10
15574;DHT22;7888;46.748;8.102;2023-05-10T14:14:12;19.70;50.50
15574;DHT22;7888;46.748;8.102;2023-05-10T14:16:42;19.70;49.80
15574;DHT22;7888;46.748;8.102;2023-05-10T14:19:10;19.80;49.90
15574;DHT22;7888;46.748;8.102;2023-05-10T14:21:36;19.80;49.80
15574;DHT22;7888;46.748;8.102;2023-05-10T14:24:02;19.80;49.80
15574;DHT22;7888;46.748;8.102;2023-05-10T14:26:28;19.80;49.80
15574;DHT22;7888;46.748;8.102;2023-05-10T14:28:53;19.80;49.50
15574;DHT22;7888;46.748;8.102;2023-05-10T14:31:19;19.70;49.40
15574;DHT22;7888;46.748;8.102;2023-05-10T14:33:46;19.70;49.30
15574;DHT22;7888;46.748;8.102;2023-05-10T14:36:13;19.70;49.20
15574;DHT22;7888;46.748;8.102;2023-05-10T14:38:39;19.70;49.40
15574;DHT22;7888;46.748;8.102;2023-05-10T14:41:06;19.60;49.30
15574;DHT22;7888;46.748;8.102;2023-05-10T14:43:32;19.50;48.90
15574;DHT22;7888;46.748;8.102;2023-05-10T14:45:58;19.50;48.70
15574;DHT22;7888;46.748;8.102;2023-05-10T14:48:23;19.40;48.60
15574;DHT22;7888;46.748;8.102;2023-05-10T14:50:49;19.30;48.50
15574;DHT22;7888;46.748;8.102;2023-05-10T14:53:16;19.30;48.60
15574;DHT22;7888;46.748;8.102;2023-05-10T14:55:41;19.20;48.60
15574;DHT22;7888;46.748;8.102;2023-05-10T14:58:07;19.10;48.60
15574;DHT22;7888;46.748;8.102;2023-05-10T15:00:33;19.10;48.80
15574;DHT22;7888;46.748;8.102;2023-05-10T15:02:59;19.00;49.00
15574;DHT22;7888;46.748;8.102;2023-05-10T15:05:25;18.90;49.20
15574;DHT22;7888;46.748;8.102;2023-05-10T15:07:50;18.90;49.40
15574;DHT22;7888;46.748;8.102;2023-05-10T15:10:17;18.80;49.60
15574;DHT22;7888;46.748;8.102;2023-05-10T15:12:43;18.70;49.80
15574;DHT22;7888;46.748;8.102;2023-05-10T15:15:09;18.60;50.00
15574;DHT22;7888;46.748;8.102;2023-05-10T15:17:35;18.60;50.30
15574;DHT22;7888;46.748;8.102;2023-05-10T15:20:01;18.60;50.50
15574;DHT22;7888;46.748;8.102;2023-05-10T15:22:30;18.50;50.60
15574;DHT22;7888;46.748;8.102;2023-05-10T15:24:58;18.40;50.40
15574;DHT22;7888;46.748;8.102;2023-05-10T15:27:25;18.40;50.70
15574;DHT22;7888;46.748;8.102;2023-05-10T15:29:51;18.30;50.90
15574;DHT22;7888;46.748;8.102;2023-05-10T15:32:17;18.20;50.90
15574;DHT22;7888;46.748;8.102;2023-05-10T15:34:43;18.10;51.00
15574;DHT22;7888;46.748;8.102;2023-05-10T15:37:09;18.00;51.00
15574;DHT22;7888;46.748;8.102;2023-05-10T15:39:35;17.90;51.10
15574;DHT22;7888;46.748;8.102;2023-05-10T15:42:01;17.80;51.10
15574;DHT22;7888;46.748;8.102;2023-05-10T15:44:28;17.80;51.30
15574;DHT22;7888;46.748;8.102;2023-05-10T15:46:54;17.80;51.60
15574;DHT22;7888;46.748;8.102;2023-05-10T15:49:19;17.80;51.50
15574;DHT22;7888;46.748;8.102;2023-05-10T15:51:45;17.80;51.60
15574;DHT22;7888;46.748;8.102;2023-05-10T15:54:11;17.80;52.00
15574;DHT22;7888;46.748;8.102;2023-05-10T15:56:37;17.80;52.20
15574;DHT22;7888;46.748;8.102;2023-05-10T15:59:02;17.80;52.30
15574;DHT22;7888;46.748;8.102;2023-05-10T16:01:30;17.80;52.30
15574;DHT22;7888;46.748;8.102;2023-05-10T16:03:57;17.80;52.10
15574;DHT22;7888;46.748;8.102;2023-05-10T16:06:22;17.90;52.10
15574;DHT22;7888;46.748;8.102;2023-05-10T16:08:48;17.90;52.10
15574;DHT22;7888;46.748;8.102;2023-05-10T16:11:14;17.90;51.60
15574;DHT22;7888;46.748;8.102;2023-05-10T16:13:40;17.90;51.40
15574;DHT22;7888;46.748;8.102;2023-05-10T16:16:06;17.90;51.70
15574;DHT22;7888;46.748;8.102;2023-05-10T16:18:33;17.90;51.90
15574;DHT22;7888;46.748;8.102;2023-05-10T16:21:00;17.90;52.00
15574;DHT22;7888;46.748;8.102;2023-05-10T16:23:26;17.90;51.70
15574;DHT22;7888;46.748;8.102;2023-05-10T16:25:53;17.90;51.50